Time;durP1;ratioP1;P1;durP2;ratioP2;P2;SDS_P1;SDS_P2;PMS_P1;PMS_P2;Temp;Humidity;BMP_temperature;BMP_pressure;BME280_temperature;BME280_humidity;BME280_pressure;Samples;Min_cycle;Max_cycle;Signal;HPM_P1;HPM_P2
2022/06/08 00:00:32;;;;;;;4.03;3.60;;;12.80;99.90;;;;;;4988863;28;20439;-60
2022/06/08 00:03:05;;;;;;;14.73;4.73;;;12.70;99.90;;;;;;4991412;28;20429;-61
2022/06/08 00:05:30;;;;;;;5.50;4.00;;;12.70;99.90;;;;;;4984680;28;20435;-59
2022/06/08 00:07:56;;;;;;;9.03;4.47;;;12.70;99.90;;;;;;4989742;28;20460;-60
2022/06/08 00:10:22;;;;;;;7.27;4.13;;;12.70;99.90;;;;;;4989018;28;20235;-59
2022/06/08 00:12:48;;;;;;;5.33;4.30;;;12.70;99.90;;;;;;4986970;28;20451;-60
2022/06/08 00:15:14;;;;;;;6.83;4.43;;;12.70;99.90;;;;;;4985911;28;20188;-60
2022/06/08 00:17:40;;;;;;;6.73;5.30;;;12.70;99.90;;;;;;4995605;28;20292;-59
2022/06/08 00:20:07;;;;;;;5.17;4.63;;;12.60;99.90;;;;;;4998264;28;20589;-59
2022/06/08 00:22:32;;;;;;;16.00;4.80;;;12.70;99.90;;;;;;4997681;28;20174;-60
2022/06/08 00:24:58;;;;;;;6.03;4.37;;;12.70;99.90;;;;;;4996129;28;20447;-60
2022/06/08 00:27:24;;;;;;;9.70;4.90;;;12.70;99.90;;;;;;4998042;28;20271;-60
2022/06/08 00:29:49;;;;;;;22.30;4.67;;;12.70;99.90;;;;;;4990722;28;20189;-60
2022/06/08 00:32:15;;;;;;;5.80;4.20;;;12.60;99.90;;;;;;4997191;28;20188;-60
2022/06/08 00:34:41;;;;;;;14.73;4.30;;;12.60;99.90;;;;;;4999224;28;20173;-62
2022/06/08 00:37:06;;;;;;;3.67;3.37;;;12.60;99.90;;;;;;4994514;28;20603;-60
2022/06/08 00:39:32;;;;;;;9.00;4.50;;;12.50;99.90;;;;;;4997595;28;20197;-60
2022/06/08 00:42:02;;;;;;;11.07;4.70;;;12.60;99.90;;;;;;4996714;28;20683;-60
2022/06/08 00:44:30;;;;;;;21.87;5.10;;;12.50;99.90;;;;;;4995646;28;20173;-60
2022/06/08 00:46:58;;;;;;;20.30;4.43;;;12.50;99.90;;;;;;4989350;28;20436;-60
2022/06/08 00:49:29;;;;;;;10.27;4.77;;;12.50;99.90;;;;;;4999717;28;20443;-60
2022/06/08 00:51:56;;;;;;;7.73;4.33;;;12.50;99.90;;;;;;4994950;28;20441;-59
2022/06/08 00:54:33;;;;;;;11.43;4.60;;;12.50;99.90;;;;;;4993921;28;20917;-60
2022/06/08 00:57:17;;;;;;;20.07;4.20;;;12.50;99.90;;;;;;4992348;28;20514;-59
2022/06/08 00:59:49;;;;;;;6.50;4.30;;;12.40;99.90;;;;;;4992819;28;20534;-59
2022/06/08 01:02:16;;;;;;;14.17;4.00;;;12.30;99.90;;;;;;4996608;28;20436;-60
2022/06/08 01:04:42;;;;;;;8.40;4.20;;;12.20;99.90;;;;;;4991286;28;20434;-60
2022/06/08 01:07:10;;;;;;;10.20;4.53;;;12.20;99.90;;;;;;4987847;28;20436;-60
2022/06/08 01:09:38;;;;;;;8.97;5.33;;;12.20;99.90;;;;;;4999257;28;20196;-59
2022/06/08 01:12:11;;;;;;;9.97;5.80;;;12.20;99.90;;;;;;4987419;28;20486;-57
2022/06/08 01:14:38;;;;;;;10.93;6.00;;;12.30;99.90;;;;;;4985159;28;20433;-60
2022/06/08 01:17:10;;;;;;;10.13;5.90;;;12.20;99.90;;;;;;4998256;28;20423;-61
2022/06/08 01:19:38;;;;;;;18.37;5.70;;;12.30;99.90;;;;;;4998197;28;20509;-60
2022/06/08 01:22:06;;;;;;;20.70;7.90;;;12.30;99.90;;;;;;4989267;28;20464;-61
2022/06/08 01:24:32;;;;;;;17.27;7.70;;;12.20;99.90;;;;;;4998205;28;20405;-60
2022/06/08 01:27:19;;;;;;;20.03;6.67;;;12.20;99.90;;;;;;4992108;28;21054;-60
2022/06/08 01:30:01;;;;;;;18.10;8.40;;;12.20;99.90;;;;;;4989814;28;20427;-60
2022/06/08 01:32:28;;;;;;;22.00;9.90;;;12.20;99.90;;;;;;4992706;28;20434;-59
2022/06/08 01:35:00;;;;;;;26.23;10.47;;;12.20;99.90;;;;;;4989727;28;20471;-60
2022/06/08 01:37:50;;;;;;;16.53;8.60;;;12.10;99.90;;;;;;4987095;28;20452;-59
2022/06/08 01:40:31;;;;;;;23.90;10.40;;;12.10;99.90;;;;;;4982899;28;20437;-60
2022/06/08 01:43:07;;;;;;;27.13;10.50;;;12.10;99.90;;;;;;4988061;28;20431;-60
2022/06/08 01:45:49;;;;;;;23.57;9.70;;;12.10;99.90;;;;;;4992697;28;20431;-60
2022/06/08 01:48:26;;;;;;;25.37;10.50;;;12.10;99.90;;;;;;4991421;28;20457;-60
2022/06/08 01:51:27;;;;;;;29.20;12.07;;;12.10;99.90;;;;;;5001166;28;20434;-60
2022/06/08 01:54:04;;;;;;;27.13;11.60;;;12.10;99.90;;;;;;4975910;28;20443;-60
2022/06/08 01:56:51;;;;;;;27.13;9.10;;;12.10;99.90;;;;;;4994355;28;20437;-60
2022/06/08 01:59:55;;;;;;;19.20;9.10;;;12.10;99.90;;;;;;4988143;28;20456;-60
2022/06/08 02:02:45;;;;;;;26.17;10.00;;;12.10;99.90;;;;;;4973166;28;20516;-60
2022/06/08 02:05:13;;;;;;;24.60;10.50;;;12.10;99.90;;;;;;4970532;28;20460;-60
2022/06/08 02:07:45;;;;;;;30.57;10.60;;;12.00;99.90;;;;;;4981061;28;20499;-59
2022/06/08 02:10:17;;;;;;;22.00;10.20;;;12.00;99.90;;;;;;4989258;28;20494;-60
2022/06/08 02:12:48;;;;;;;20.23;8.93;;;12.00;99.90;;;;;;4991773;28;20428;-59
2022/06/08 02:15:31;;;;;;;21.60;9.63;;;11.90;99.90;;;;;;4983488;28;20559;-60
2022/06/08 02:18:02;;;;;;;25.57;10.13;;;11.90;99.90;;;;;;4992097;28;20455;-59
2022/06/08 02:20:56;;;;;;;19.93;9.70;;;11.90;99.90;;;;;;5000928;28;20779;-59
2022/06/08 02:23:49;;;;;;;19.37;8.87;;;11.90;99.90;;;;;;4999136;28;20431;-59
2022/06/08 02:26:29;;;;;;;22.30;8.30;;;11.90;99.90;;;;;;4996270;28;20475;-60
2022/06/08 02:29:04;;;;;;;16.93;7.43;;;11.90;99.90;;;;;;4993176;28;20498;-62
2022/06/08 02:31:43;;;;;;;20.80;8.57;;;11.90;99.90;;;;;;4989353;28;20435;-60
2022/06/08 02:34:31;;;;;;;32.13;9.20;;;11.80;99.90;;;;;;4982845;28;20428;-59
2022/06/08 02:37:12;;;;;;;21.13;8.70;;;11.80;99.90;;;;;;4991426;28;20746;-60
2022/06/08 02:39:52;;;;;;;20.93;8.63;;;11.80;99.90;;;;;;4996421;28;20490;-59
2022/06/08 02:42:48;;;;;;;58.63;11.70;;;11.70;99.90;;;;;;4997145;28;20795;-59
2022/06/08 02:45:27;;;;;;;25.77;9.77;;;11.70;99.90;;;;;;4987461;28;20574;-61
2022/06/08 02:47:59;;;;;;;17.83;9.13;;;11.70;99.90;;;;;;5000674;28;20455;-59
2022/06/08 02:50:26;;;;;;;25.30;10.20;;;11.70;99.90;;;;;;4986146;28;20431;-59
2022/06/08 02:53:04;;;;;;;21.37;8.73;;;11.70;99.90;;;;;;4998419;28;21005;-60
2022/06/08 02:55:57;;;;;;;22.90;9.30;;;11.70;99.90;;;;;;4991324;28;20511;-59
2022/06/08 02:58:39;;;;;;;21.60;9.10;;;11.80;99.90;;;;;;4999004;28;20475;-59
2022/06/08 03:01:13;;;;;;;28.07;9.77;;;11.80;99.90;;;;;;4991378;28;20427;-59
2022/06/08 03:03:45;;;;;;;21.87;8.47;;;11.80;99.90;;;;;;4998656;28;20432;-60
2022/06/08 03:06:16;;;;;;;18.03;8.47;;;11.80;99.90;;;;;;4990284;28;20515;-58
2022/06/08 03:08:56;;;;;;;22.77;9.13;;;11.80;99.90;;;;;;5001221;28;20890;-59
2022/06/08 03:11:25;;;;;;;16.70;8.30;;;11.80;99.90;;;;;;4991327;28;20470;-60
2022/06/08 03:14:02;;;;;;;39.37;8.60;;;11.80;99.90;;;;;;4992945;28;20832;-61
2022/06/08 03:16:59;;;;;;;22.70;8.67;;;11.70;99.90;;;;;;4998772;28;20440;-60
2022/06/08 03:19:26;;;;;;;45.00;9.93;;;11.70;99.90;;;;;;4989768;28;21001;-60
2022/06/08 03:21:54;;;;;;;30.87;8.77;;;11.70;99.90;;;;;;4995976;28;20999;-60
2022/06/08 03:24:21;;;;;;;38.43;8.20;;;11.60;99.90;;;;;;5004321;28;20446;-60
2022/06/08 03:26:58;;;;;;;58.73;9.70;;;11.60;99.90;;;;;;5001674;28;20436;-60
2022/06/08 03:29:24;;;;;;;32.00;8.93;;;11.50;99.90;;;;;;5007615;28;20435;-60
2022/06/08 03:31:50;;;;;;;21.50;8.80;;;11.50;99.90;;;;;;4988842;28;20443;-61
2022/06/08 03:34:17;;;;;;;46.53;9.60;;;11.40;99.90;;;;;;4990917;28;20454;-59
2022/06/08 03:36:43;;;;;;;17.27;8.47;;;11.40;99.90;;;;;;4993880;28;20428;-59
2022/06/08 03:39:09;;;;;;;26.87;7.73;;;11.30;99.90;;;;;;4996301;28;20474;-60
2022/06/08 03:41:35;;;;;;;28.77;8.07;;;11.30;99.90;;;;;;4994750;28;20463;-59
2022/06/08 03:44:03;;;;;;;75.90;9.53;;;11.30;99.90;;;;;;4998880;28;20478;-60
2022/06/08 03:46:33;;;;;;;39.57;9.00;;;11.30;99.90;;;;;;4987679;28;20181;-60
2022/06/08 03:48:59;;;;;;;24.60;9.17;;;11.30;99.90;;;;;;4994682;28;20454;-59
2022/06/08 03:51:24;;;;;;;23.43;8.03;;;11.30;99.90;;;;;;5001634;28;20431;-60
2022/06/08 03:54:04;;;;;;;16.93;7.60;;;11.30;99.90;;;;;;4987251;28;20184;-60
2022/06/08 03:56:32;;;;;;;37.97;8.60;;;11.30;99.90;;;;;;4976643;28;20586;-58
2022/06/08 03:58:58;;;;;;;16.53;7.10;;;11.30;99.90;;;;;;4981171;28;20475;-59
2022/06/08 04:01:25;;;;;;;20.00;6.90;;;11.20;99.90;;;;;;4979554;28;20866;-58
2022/06/08 04:03:52;;;;;;;16.90;6.63;;;11.20;99.90;;;;;;4983856;28;20455;-59
2022/06/08 04:06:19;;;;;;;13.53;6.33;;;11.30;99.90;;;;;;4977989;28;20451;-60
2022/06/08 04:08:45;;;;;;;25.87;7.23;;;11.20;99.90;;;;;;4981355;28;20489;-61
2022/06/08 04:11:10;;;;;;;14.73;6.13;;;11.30;99.90;;;;;;4978880;28;21148;-60
2022/06/08 04:13:37;;;;;;;21.87;6.83;;;11.30;99.90;;;;;;4972883;28;20189;-60
2022/06/08 04:16:03;;;;;;;18.30;7.00;;;11.30;99.90;;;;;;4969087;28;20186;-60
2022/06/08 04:18:30;;;;;;;16.50;7.00;;;11.30;99.90;;;;;;4972799;28;20535;-60
2022/06/08 04:20:58;;;;;;;15.07;6.97;;;11.30;99.90;;;;;;4974565;28;20498;-58
2022/06/08 04:23:27;;;;;;;15.00;6.80;;;11.30;99.90;;;;;;4979056;28;22515;-61
2022/06/08 04:25:53;;;;;;;22.53;8.60;;;11.30;99.90;;;;;;4974801;28;22445;-60
2022/06/08 04:28:20;;;;;;;18.70;8.17;;;11.30;99.90;;;;;;4972098;28;20457;-60
2022/06/08 04:30:46;;;;;;;34.37;9.70;;;11.40;99.90;;;;;;4973421;28;20478;-61
2022/06/08 04:33:13;;;;;;;25.67;8.87;;;11.40;99.90;;;;;;4976762;28;20552;-61
2022/06/08 04:35:39;;;;;;;30.37;8.60;;;11.30;99.90;;;;;;4993395;28;20448;-60
2022/06/08 04:38:05;;;;;;;24.10;8.50;;;11.40;99.90;;;;;;4983635;28;20460;-60
2022/06/08 04:40:32;;;;;;;23.53;10.30;;;11.40;99.90;;;;;;4986103;28;20448;-61
2022/06/08 04:42:58;;;;;;;24.07;11.57;;;11.40;99.90;;;;;;4977583;28;20527;-60
2022/06/08 04:45:24;;;;;;;28.93;9.10;;;11.40;99.90;;;;;;4977526;28;20563;-60
2022/06/08 04:47:50;;;;;;;41.17;10.80;;;11.40;99.90;;;;;;4976200;28;21188;-60
2022/06/08 04:50:16;;;;;;;26.50;7.37;;;11.40;99.90;;;;;;4989182;28;20526;-61
2022/06/08 04:52:41;;;;;;;17.10;7.40;;;11.40;99.90;;;;;;4978942;28;20294;-60
2022/06/08 04:55:09;;;;;;;39.90;12.83;;;11.40;99.90;;;;;;4985155;28;20208;-60
2022/06/08 04:57:37;;;;;;;33.13;11.30;;;11.40;99.90;;;;;;4980203;28;20630;-57
2022/06/08 05:00:09;;;;;;;30.60;9.17;;;11.40;99.90;;;;;;4988137;28;20478;-61
2022/06/08 05:02:44;;;;;;;51.17;15.27;;;11.40;99.90;;;;;;4980117;28;20444;-60
2022/06/08 05:05:31;;;;;;;68.23;19.03;;;11.40;99.90;;;;;;5003273;28;20520;-60
2022/06/08 05:07:58;;;;;;;42.90;16.27;;;11.30;99.90;;;;;;5010377;28;20461;-60
2022/06/08 05:10:27;;;;;;;32.83;14.30;;;11.30;99.90;;;;;;4997942;28;20436;-60
2022/06/08 05:12:53;;;;;;;35.83;15.90;;;11.30;99.90;;;;;;4990067;28;20436;-61
2022/06/08 05:15:30;;;;;;;46.53;15.53;;;11.30;99.90;;;;;;4989777;28;20414;-60
2022/06/08 05:17:56;;;;;;;34.87;10.93;;;11.30;99.90;;;;;;4990544;28;20195;-61
2022/06/08 05:20:22;;;;;;;27.13;10.60;;;11.30;99.90;;;;;;4989947;28;20424;-61
2022/06/08 05:22:49;;;;;;;34.37;14.67;;;11.30;99.90;;;;;;4990114;28;20462;-61
2022/06/08 05:25:27;;;;;;;32.13;13.73;;;11.30;99.90;;;;;;4989447;28;20169;-60
2022/06/08 05:27:53;;;;;;;37.57;14.50;;;11.30;99.90;;;;;;4989083;28;20447;-60
2022/06/08 05:30:19;;;;;;;28.73;14.00;;;11.40;99.90;;;;;;4989588;28;20451;-60
2022/06/08 05:32:44;;;;;;;32.63;13.87;;;11.50;99.90;;;;;;4990110;28;20981;-60
2022/06/08 05:35:10;;;;;;;32.17;13.37;;;11.50;99.90;;;;;;4988186;28;20906;-60
2022/06/08 05:37:36;;;;;;;42.57;16.77;;;11.50;99.90;;;;;;4989126;28;20197;-60
2022/06/08 05:40:04;;;;;;;45.70;16.27;;;11.60;99.90;;;;;;4990236;28;20312;-60
2022/06/08 05:42:30;;;;;;;41.20;16.30;;;11.60;99.90;;;;;;4985283;28;20202;-60
2022/06/08 05:44:57;;;;;;;48.00;16.00;;;11.50;99.90;;;;;;4986971;28;20455;-60
2022/06/08 05:47:23;;;;;;;35.13;15.20;;;11.60;99.90;;;;;;4988923;28;20636;-60
2022/06/08 05:49:49;;;;;;;36.03;16.23;;;11.60;99.90;;;;;;4988682;28;20428;-60
2022/06/08 05:52:14;;;;;;;41.53;17.07;;;11.70;99.90;;;;;;4989958;28;20400;-60
2022/06/08 05:54:40;;;;;;;39.43;15.90;;;11.70;99.90;;;;;;4989930;28;20252;-60
2022/06/08 05:57:06;;;;;;;90.73;19.80;;;11.80;99.90;;;;;;4988381;28;20183;-61
2022/06/08 05:59:32;;;;;;;52.40;16.47;;;11.80;99.90;;;;;;4988905;28;20259;-60
2022/06/08 06:01:57;;;;;;;45.07;16.00;;;11.80;99.90;;;;;;4990214;28;20704;-61
2022/06/08 06:04:23;;;;;;;59.53;19.90;;;11.80;99.90;;;;;;4987126;28;20169;-59
2022/06/08 06:06:49;;;;;;;83.73;24.97;;;11.80;99.90;;;;;;4988618;28;20169;-60
2022/06/08 06:09:17;;;;;;;95.50;25.67;;;11.80;99.90;;;;;;4989999;28;20674;-61
2022/06/08 06:11:43;;;;;;;73.57;22.33;;;11.90;99.90;;;;;;4990480;28;20177;-60
2022/06/08 06:14:10;;;;;;;53.23;20.70;;;12.00;99.90;;;;;;4995558;28;20450;-58
2022/06/08 06:16:36;;;;;;;57.07;19.37;;;12.10;99.90;;;;;;4990370;28;20459;-60
2022/06/08 06:19:02;;;;;;;40.57;17.60;;;12.20;99.90;;;;;;4993040;28;20503;-60
2022/06/08 06:21:28;;;;;;;36.27;14.17;;;12.40;99.90;;;;;;4987388;28;20507;-60
2022/06/08 06:23:56;;;;;;;34.33;14.30;;;12.50;99.90;;;;;;4993689;28;20538;-58
2022/06/08 06:26:22;;;;;;;38.40;15.50;;;12.60;99.90;;;;;;4994761;28;20208;-60
2022/06/08 06:28:48;;;;;;;34.37;15.00;;;12.80;99.90;;;;;;4996212;28;20857;-60
2022/06/08 06:31:24;;;;;;;38.90;16.17;;;12.90;99.90;;;;;;4996775;28;20427;-59
2022/06/08 06:33:50;;;;;;;39.37;16.17;;;13.10;99.90;;;;;;4995701;28;20454;-61
2022/06/08 06:36:15;;;;;;;40.57;16.93;;;13.10;99.90;;;;;;4996141;28;20444;-60
2022/06/08 06:38:41;;;;;;;39.63;15.30;;;13.20;99.90;;;;;;4993955;28;20223;-62
2022/06/08 06:41:07;;;;;;;36.70;15.03;;;13.20;99.90;;;;;;4989114;28;20178;-61
2022/06/08 06:43:34;;;;;;;40.60;16.00;;;13.30;99.90;;;;;;4976606;28;20162;-60
2022/06/08 06:46:00;;;;;;;49.33;14.90;;;13.40;99.90;;;;;;4976961;28;20257;-60
2022/06/08 06:48:25;;;;;;;33.40;13.17;;;13.40;99.90;;;;;;4996356;28;20502;-61
2022/06/08 06:50:51;;;;;;;38.77;14.30;;;13.50;99.90;;;;;;4994935;28;20699;-60
2022/06/08 06:53:17;;;;;;;35.37;15.00;;;13.50;99.90;;;;;;4992615;28;20199;-61
2022/06/08 06:55:43;;;;;;;38.30;14.13;;;13.70;99.90;;;;;;4993853;28;20227;-60
2022/06/08 06:58:08;;;;;;;31.67;14.07;;;13.80;99.90;;;;;;4996229;28;20199;-60
2022/06/08 07:00:34;;;;;;;37.70;13.83;;;14.00;99.90;;;;;;4994142;28;20181;-61
2022/06/08 07:03:00;;;;;;;33.17;14.53;;;14.20;99.90;;;;;;4993970;28;20177;-61
2022/06/08 07:05:30;;;;;;;44.50;15.80;;;14.30;99.90;;;;;;4987334;28;20173;-60
2022/06/08 07:07:56;;;;;;;42.07;15.90;;;14.40;99.90;;;;;;4994129;28;20463;-60
2022/06/08 07:10:22;;;;;;;28.30;13.50;;;14.60;99.90;;;;;;4995885;28;20462;-60
2022/06/08 07:12:48;;;;;;;35.83;13.83;;;14.80;99.90;;;;;;4995239;28;20439;-61
2022/06/08 07:15:16;;;;;;;27.10;11.30;;;14.90;99.90;;;;;;4995245;28;20169;-60
2022/06/08 07:17:42;;;;;;;25.30;10.37;;;15.10;99.90;;;;;;4995143;28;20482;-60
2022/06/08 07:20:08;;;;;;;16.33;8.77;;;15.20;99.90;;;;;;4995421;28;20495;-60
2022/06/08 07:22:34;;;;;;;24.57;8.57;;;15.40;99.90;;;;;;4995372;28;20191;-60
2022/06/08 07:25:00;;;;;;;16.90;8.97;;;15.40;99.90;;;;;;4990369;28;20519;-60
2022/06/08 07:27:27;;;;;;;19.20;8.33;;;15.50;99.90;;;;;;4991350;28;20207;-60
2022/06/08 07:29:53;;;;;;;19.13;9.20;;;15.60;99.90;;;;;;4991882;28;20188;-60
2022/06/08 07:32:19;;;;;;;13.97;5.77;;;15.80;99.90;;;;;;4991782;28;20491;-60
2022/06/08 07:34:45;;;;;;;10.20;5.33;;;15.90;99.90;;;;;;4992701;28;21083;-60
2022/06/08 07:37:10;;;;;;;18.23;6.80;;;16.00;99.90;;;;;;4991772;28;20185;-60
2022/06/08 07:39:36;;;;;;;12.93;5.10;;;16.10;99.90;;;;;;4990874;28;20661;-60
2022/06/08 07:42:03;;;;;;;12.57;4.90;;;16.20;99.90;;;;;;4992600;28;20193;-61
2022/06/08 07:44:28;;;;;;;13.80;4.27;;;16.40;99.90;;;;;;4992934;28;20428;-61
2022/06/08 07:46:54;;;;;;;9.40;3.40;;;16.50;99.90;;;;;;4990647;28;20505;-60
2022/06/08 07:49:37;;;;;;;8.97;3.87;;;16.60;99.90;;;;;;4991037;28;20200;-61
2022/06/08 07:52:16;;;;;;;9.43;3.77;;;16.70;99.90;;;;;;4991331;28;20184;-60
2022/06/08 07:54:43;;;;;;;6.63;3.90;;;16.80;99.90;;;;;;4978391;28;20899;-60
2022/06/08 07:57:25;;;;;;;5.40;3.37;;;16.90;99.90;;;;;;4992127;28;20415;-61
2022/06/08 07:59:51;;;;;;;4.33;2.83;;;17.00;99.90;;;;;;4991156;28;20566;-60
2022/06/08 08:02:17;;;;;;;5.53;2.60;;;17.00;99.90;;;;;;4975486;28;20545;-61
2022/06/08 08:04:43;;;;;;;4.70;1.80;;;17.00;99.90;;;;;;4987179;28;20432;-60
2022/06/08 08:07:09;;;;;;;3.80;1.90;;;17.00;99.90;;;;;;4990402;28;20257;-60
2022/06/08 08:09:36;;;;;;;8.00;1.77;;;17.10;98.80;;;;;;4973912;28;20409;-61
2022/06/08 08:12:03;;;;;;;5.10;2.03;;;17.10;99.10;;;;;;4991098;28;20436;-61
2022/06/08 08:14:33;;;;;;;5.93;2.13;;;17.20;99.90;;;;;;4987195;28;20798;-61
2022/06/08 08:16:59;;;;;;;8.30;1.83;;;17.20;99.20;;;;;;4983844;28;20476;-61
2022/06/08 08:19:25;;;;;;;3.80;2.07;;;17.20;97.60;;;;;;4984286;28;20565;-61
2022/06/08 08:21:52;;;;;;;7.13;2.00;;;17.10;93.80;;;;;;4984582;28;20428;-61
2022/06/08 08:24:18;;;;;;;4.87;2.07;;;17.00;93.70;;;;;;4982859;28;20429;-61
2022/06/08 08:26:46;;;;;;;5.23;2.40;;;16.90;94.10;;;;;;4984122;28;20456;-61
2022/06/08 08:29:13;;;;;;;3.50;2.27;;;16.90;94.40;;;;;;4983556;28;20449;-61
2022/06/08 08:31:39;;;;;;;5.37;1.60;;;16.90;95.90;;;;;;4982019;28;20456;-61
2022/06/08 08:34:05;;;;;;;2.63;1.70;;;17.00;96.10;;;;;;4982934;28;20452;-61
2022/06/08 08:36:30;;;;;;;3.47;2.00;;;17.10;93.80;;;;;;4985785;28;20522;-61
2022/06/08 08:38:58;;;;;;;4.33;1.90;;;17.20;96.30;;;;;;4984978;28;20496;-61
2022/06/08 08:44:35;;;;;;;3.33;1.90;;;17.50;95.80;;;;;;4984153;28;20498;-60
2022/06/08 08:47:26;;;;;;;4.03;1.60;;;17.60;86.00;;;;;;4984463;28;20464;-60
2022/06/08 08:50:13;;;;;;;5.57;2.10;;;17.60;88.60;;;;;;4981978;28;20492;-60
2022/06/08 08:52:40;;;;;;;3.87;1.63;;;17.70;89.10;;;;;;4981363;28;20440;-61
2022/06/08 08:55:15;;;;;;;4.77;1.57;;;17.90;86.50;;;;;;4979823;28;20437;-61
2022/06/08 08:57:56;;;;;;;2.77;1.80;;;18.00;88.50;;;;;;4984154;28;20450;-61
2022/06/08 09:00:52;;;;;;;1.93;1.73;;;18.10;82.50;;;;;;4985115;28;20459;-60
2022/06/08 09:03:23;;;;;;;4.20;1.87;;;18.10;82.00;;;;;;4996962;28;20429;-61
2022/06/08 09:05:52;;;;;;;3.33;1.90;;;18.20;80.60;;;;;;4979553;28;20437;-59
2022/06/08 09:08:19;;;;;;;2.73;1.93;;;18.20;76.80;;;;;;4982573;28;20459;-61
2022/06/08 09:10:45;;;;;;;5.37;2.00;;;18.20;76.00;;;;;;4979889;28;20472;-60
2022/06/08 09:13:20;;;;;;;4.33;2.23;;;18.10;86.20;;;;;;4984010;28;20464;-60
2022/06/08 09:15:54;;;;;;;2.00;1.80;;;18.10;88.10;;;;;;4981743;28;20432;-60
2022/06/08 09:18:34;;;;;;;6.43;1.93;;;18.10;82.40;;;;;;4980442;28;20460;-61
2022/06/08 09:21:35;;;;;;;4.37;1.60;;;18.30;86.70;;;;;;4982171;28;20416;-61
2022/06/08 09:24:16;;;;;;;3.47;1.50;;;18.40;79.40;;;;;;4985375;28;20468;-61
2022/06/08 09:26:42;;;;;;;3.13;1.60;;;18.40;83.40;;;;;;4995405;28;20535;-59
2022/06/08 09:29:10;;;;;;;2.60;1.40;;;18.40;91.50;;;;;;4980418;28;20519;-61
2022/06/08 09:31:38;;;;;;;3.30;1.53;;;18.50;86.40;;;;;;4981442;28;20181;-60
2022/06/08 09:34:07;;;;;;;2.73;1.60;;;18.70;86.30;;;;;;4982702;28;20436;-60
2022/06/08 09:36:33;;;;;;;3.47;1.50;;;19.00;79.30;;;;;;4981808;28;20424;-61
2022/06/08 09:38:58;;;;;;;3.93;1.80;;;19.30;73.20;;;;;;4985198;28;20596;-61
2022/06/08 09:41:58;;;;;;;3.00;1.77;;;19.50;66.10;;;;;;4982534;28;20456;-61
2022/06/08 09:44:29;;;;;;;2.70;1.97;;;19.70;67.60;;;;;;4966698;28;20232;-61
2022/06/08 09:53:56;;;;;;;7.60;2.00;;;19.80;71.60;;;;;;4956689;28;20527;-62
2022/06/08 09:56:33;;;;;;;2.90;1.57;;;19.80;73.30;;;;;;4982630;28;20439;-60
2022/06/08 09:59:29;;;;;;;3.90;1.13;;;19.80;66.30;;;;;;4983248;28;20455;-60
2022/06/08 10:02:35;;;;;;;2.70;1.63;;;19.70;59.70;;;;;;4984496;28;20511;-61
2022/06/08 10:05:22;;;;;;;5.63;1.77;;;19.50;58.60;;;;;;4960909;28;20448;-61
2022/06/08 10:08:09;;;;;;;2.00;1.50;;;19.50;56.20;;;;;;4963086;28;21007;-60
2022/06/08 10:11:34;;;;;;;4.07;1.70;;;19.50;53.20;;;;;;4978945;28;20961;-61
2022/06/08 10:14:25;;;;;;;2.30;1.20;;;19.60;57.60;;;;;;4980539;28;20442;-60
2022/06/08 10:17:20;;;;;;;5.03;1.33;;;19.70;54.30;;;;;;4981912;28;20429;-60
2022/06/08 10:19:48;;;;;;;2.47;1.10;;;19.80;52.70;;;;;;4976770;28;20979;-62
2022/06/08 10:22:14;;;;;;;2.60;1.30;;;19.90;50.00;;;;;;4978968;28;20771;-59
2022/06/08 10:24:47;;;;;;;2.67;1.60;;;20.10;50.10;;;;;;4974007;28;20818;-61
2022/06/08 10:27:24;;;;;;;4.27;1.20;;;20.30;52.20;;;;;;4979161;28;20934;-59
2022/06/08 10:30:07;;;;;;;1.37;1.27;;;20.50;47.10;;;;;;4973868;28;20444;-62
2022/06/08 10:32:38;;;;;;;2.37;1.33;;;20.60;48.70;;;;;;4977525;28;21284;-63
2022/06/08 10:35:22;;;;;;;5.60;1.53;;;20.70;47.60;;;;;;4975253;28;21397;-62
2022/06/08 10:37:48;;;;;;;2.40;1.50;;;21.00;49.20;;;;;;4976215;28;20586;-63
2022/06/08 10:40:20;;;;;;;5.47;1.27;;;21.20;50.50;;;;;;4975396;28;20515;-61
2022/06/08 10:42:48;;;;;;;1.83;1.40;;;21.30;46.10;;;;;;4978019;28;20427;-63
2022/06/08 10:45:22;;;;;;;2.20;1.40;;;21.40;48.10;;;;;;4978036;28;20436;-63
2022/06/08 10:47:55;;;;;;;1.90;1.40;;;21.50;45.30;;;;;;4980086;28;20447;-61
2022/06/08 10:50:42;;;;;;;3.67;1.50;;;21.60;46.00;;;;;;4983387;28;20498;-63
2022/06/08 10:56:23;;;;;;;2.80;1.77;;;21.60;48.40;;;;;;4981311;28;20416;-62
2022/06/08 10:59:06;;;;;;;4.80;1.50;;;21.70;48.10;;;;;;4979477;28;20471;-61
2022/06/08 11:01:59;;;;;;;3.73;1.50;;;21.70;47.90;;;;;;4984605;28;20500;-63
2022/06/08 11:04:36;;;;;;;3.37;1.67;;;21.80;47.90;;;;;;4981434;28;20949;-62
2022/06/08 11:07:17;;;;;;;2.33;1.30;;;21.80;47.80;;;;;;4983623;28;20446;-62
2022/06/08 11:09:48;;;;;;;4.13;1.70;;;21.80;46.90;;;;;;4986176;28;20432;-62
2022/06/08 11:12:13;;;;;;;3.17;1.60;;;21.60;47.10;;;;;;4982394;28;20442;-62
2022/06/08 11:14:48;;;;;;;2.10;1.50;;;21.50;44.40;;;;;;4978533;28;20944;-61
2022/06/08 11:17:29;;;;;;;7.93;2.10;;;21.40;44.90;;;;;;4981174;28;20777;-61
2022/06/08 11:20:11;;;;;;;5.73;2.30;;;21.50;47.20;;;;;;4984448;28;20451;-63
2022/06/08 11:22:42;;;;;;;6.63;1.80;;;21.60;47.80;;;;;;4979165;28;20419;-61
2022/06/08 11:25:17;;;;;;;5.40;1.87;;;21.80;47.70;;;;;;4984066;28;20445;-62
2022/06/08 11:27:43;;;;;;;6.13;2.03;;;22.00;47.20;;;;;;4986236;28;20585;-62
2022/06/08 11:30:21;;;;;;;3.10;1.70;;;22.20;47.50;;;;;;4981945;28;21128;-62
2022/06/08 11:32:52;;;;;;;8.00;2.27;;;22.30;47.20;;;;;;4980457;28;20428;-62
2022/06/08 11:35:38;;;;;;;3.67;1.70;;;22.30;46.70;;;;;;4983860;28;20444;-63
2022/06/08 11:38:16;;;;;;;3.30;1.80;;;22.10;46.30;;;;;;4974545;28;20524;-64
2022/06/08 11:40:42;;;;;;;3.30;1.97;;;21.80;46.90;;;;;;4984188;28;20494;-63
2022/06/08 11:43:14;;;;;;;3.20;1.70;;;21.60;48.50;;;;;;4981320;28;20435;-62
2022/06/08 11:45:40;;;;;;;2.23;1.80;;;21.50;49.10;;;;;;4983627;28;20991;-62
2022/06/08 11:48:15;;;;;;;3.63;1.80;;;21.40;48.60;;;;;;4987314;28;20437;-62
2022/06/08 11:50:45;;;;;;;3.20;2.07;;;21.20;48.30;;;;;;4983583;28;20181;-63
2022/06/08 11:53:38;;;;;;;1.83;1.73;;;21.20;49.30;;;;;;4982971;28;20457;-61
2022/06/08 11:56:23;;;;;;;6.20;1.77;;;21.10;47.90;;;;;;4981712;28;20961;-61
2022/06/08 11:58:52;;;;;;;3.00;1.57;;;21.00;50.40;;;;;;4981650;28;20472;-62
2022/06/08 12:01:22;;;;;;;3.20;1.83;;;21.00;49.50;;;;;;4985464;28;20995;-61
2022/06/08 12:03:57;;;;;;;5.50;1.83;;;20.90;49.40;;;;;;4982119;28;20421;-61
2022/06/08 12:06:32;;;;;;;3.77;1.90;;;20.90;50.30;;;;;;4981333;28;20432;-61
2022/06/08 12:09:20;;;;;;;4.00;1.80;;;21.10;50.50;;;;;;4982666;28;20472;-61
2022/06/08 12:11:49;;;;;;;2.70;1.50;;;21.30;50.30;;;;;;4987295;28;20629;-62
2022/06/08 12:14:23;;;;;;;3.80;1.30;;;21.60;48.90;;;;;;4983381;28;20436;-60
2022/06/08 12:16:58;;;;;;;4.03;1.67;;;21.60;48.20;;;;;;4996489;28;20443;-61
2022/06/08 12:19:26;;;;;;;2.10;1.43;;;21.50;47.50;;;;;;4988668;28;20529;-60
2022/06/08 12:22:10;;;;;;;5.73;1.77;;;21.40;47.40;;;;;;4991094;28;20512;-61
2022/06/08 12:24:37;;;;;;;4.00;1.80;;;21.20;47.40;;;;;;4989961;28;20479;-60
2022/06/08 12:27:14;;;;;;;2.80;1.50;;;21.00;48.00;;;;;;4989371;28;20451;-60
2022/06/08 12:29:52;;;;;;;3.63;1.63;;;20.90;47.80;;;;;;4982511;28;20446;-61
2022/06/08 12:32:26;;;;;;;2.70;1.50;;;20.80;48.70;;;;;;4987967;28;20428;-62
2022/06/08 12:35:15;;;;;;;3.67;1.50;;;20.80;49.60;;;;;;4988279;28;20467;-62
2022/06/08 12:37:48;;;;;;;5.73;1.47;;;20.90;49.50;;;;;;4990392;28;20448;-61
2022/06/08 12:40:16;;;;;;;6.03;1.37;;;21.10;49.90;;;;;;4990756;28;20460;-61
2022/06/08 12:43:11;;;;;;;1.80;1.63;;;21.40;49.30;;;;;;4990192;28;20420;-61
2022/06/08 12:45:46;;;;;;;2.43;1.40;;;21.80;48.90;;;;;;4987615;28;21012;-62
2022/06/08 12:48:26;;;;;;;2.83;1.20;;;22.00;48.40;;;;;;4982861;28;20448;-61
2022/06/08 12:50:53;;;;;;;3.33;1.47;;;22.10;48.90;;;;;;4986500;28;20431;-60
2022/06/08 12:53:19;;;;;;;3.73;1.50;;;22.00;48.10;;;;;;4990880;28;20419;-61
2022/06/08 12:55:44;;;;;;;2.83;1.53;;;22.10;48.70;;;;;;4989802;28;20428;-62
2022/06/08 12:58:10;;;;;;;10.23;1.97;;;22.20;47.80;;;;;;4989925;28;20450;-62
2022/06/08 13:00:38;;;;;;;1.27;1.13;;;22.10;47.80;;;;;;4986659;28;20185;-61
2022/06/08 13:03:18;;;;;;;4.10;1.50;;;22.00;47.40;;;;;;4988188;28;20537;-62
2022/06/08 13:05:45;;;;;;;4.20;1.97;;;21.90;46.70;;;;;;4985148;28;20432;-63
2022/06/08 13:08:16;;;;;;;3.03;2.00;;;21.90;47.40;;;;;;4982408;28;22064;-62
2022/06/08 13:10:44;;;;;;;2.20;1.57;;;21.80;48.20;;;;;;4989628;28;20432;-60
2022/06/08 13:13:19;;;;;;;4.63;1.80;;;21.60;48.10;;;;;;4988901;28;20465;-59
2022/06/08 13:15:46;;;;;;;2.87;1.53;;;21.40;48.60;;;;;;4988087;28;20416;-61